createdAt,value
2018-11-11T00:01:32.755Z,98997.00
2018-11-11T00:04:02.708Z,98989.00
2018-11-11T00:06:32.828Z,98993.00
2018-11-11T00:09:02.623Z,99008.00
2018-11-11T00:11:32.355Z,99014.00
2018-11-11T00:14:02.176Z,99023.00
2018-11-11T00:16:32.232Z,99029.00
2018-11-11T00:19:02.049Z,99037.00
2018-11-11T00:21:32.594Z,99039.00
2018-11-11T00:24:02.460Z,99053.00
2018-11-11T00:26:32.317Z,99051.00
2018-11-11T00:29:02.158Z,99048.00
2018-11-11T00:31:33.618Z,99052.00
2018-11-11T00:34:04.330Z,99065.00
2018-11-11T00:36:34.665Z,99070.00
2018-11-11T00:39:05.223Z,99064.00
2018-11-11T00:41:35.038Z,99061.00
2018-11-11T00:44:05.881Z,99063.00
2018-11-11T00:46:35.807Z,99065.00
2018-11-11T00:49:05.912Z,99055.00
2018-11-11T00:51:35.602Z,99059.00
2018-11-11T00:54:05.697Z,99043.00
2018-11-11T00:56:35.348Z,99053.00
2018-11-11T00:59:05.652Z,99051.00
2018-11-11T01:01:36.248Z,99058.00
2018-11-11T01:04:13.146Z,99042.00
2018-11-11T01:06:43.265Z,99062.00
2018-11-11T01:09:13.274Z,99065.00
2018-11-11T01:11:43.059Z,99044.00
2018-11-11T01:14:12.997Z,99041.00
2018-11-11T01:16:43.043Z,99044.00
2018-11-11T01:19:13.217Z,99059.00
2018-11-11T01:21:43.754Z,99052.00
2018-11-11T01:24:13.563Z,99057.00
2018-11-11T01:26:44.186Z,99062.00
2018-11-11T01:29:14.053Z,99052.00
2018-11-11T01:31:44.087Z,99051.00
2018-11-11T01:34:14.539Z,99052.00
2018-11-11T01:36:44.828Z,99047.00
2018-11-11T01:39:16.389Z,99043.00
2018-11-11T01:41:46.185Z,99060.00
2018-11-11T01:44:16.922Z,99049.00
2018-11-11T01:46:47.295Z,99050.00
2018-11-11T01:49:17.354Z,99063.00
2018-11-11T01:51:48.088Z,99063.00
2018-11-11T01:54:17.957Z,99055.00
2018-11-11T01:56:48.072Z,99058.00
2018-11-11T01:59:17.971Z,99056.00
2018-11-11T02:01:47.711Z,99062.00
2018-11-11T02:04:18.035Z,99063.00
2018-11-11T02:06:48.080Z,99063.00
2018-11-11T02:09:17.870Z,99065.00
2018-11-11T02:11:47.510Z,99071.00
2018-11-11T02:14:17.155Z,99065.00
2018-11-11T02:16:47.125Z,99070.00
2018-11-11T02:19:17.011Z,99079.00
2018-11-11T02:21:47.946Z,99076.00
2018-11-11T02:24:17.577Z,99072.00
2018-11-11T02:26:47.383Z,99070.00
2018-11-11T02:29:17.235Z,99071.00
2018-11-11T02:31:46.954Z,99080.00
2018-11-11T02:34:16.858Z,99083.00
2018-11-11T02:36:46.765Z,99093.00
2018-11-11T02:39:16.692Z,99095.00
2018-11-11T02:41:46.709Z,99094.00
2018-11-11T02:44:16.576Z,99083.00
2018-11-11T02:46:46.171Z,99078.00
2018-11-11T02:49:15.866Z,99066.00
2018-11-11T02:51:45.891Z,99048.00
2018-11-11T02:54:16.201Z,99056.00
2018-11-11T02:56:46.159Z,99050.00
2018-11-11T02:59:16.187Z,99041.00
2018-11-11T03:01:45.926Z,99055.00
2018-11-11T03:04:15.870Z,99066.00
2018-11-11T03:06:46.351Z,99057.00
2018-11-11T03:09:16.572Z,99058.00
2018-11-11T03:11:46.841Z,99063.00
2018-11-11T03:14:17.532Z,99049.00
2018-11-11T03:16:47.704Z,99064.00
2018-11-11T03:19:17.735Z,99058.00
2018-11-11T03:21:47.555Z,99061.00
2018-11-11T03:24:18.167Z,99055.00
2018-11-11T03:26:48.211Z,99063.00
2018-11-11T03:29:18.210Z,99069.00
2018-11-11T03:31:50.152Z,99083.00
2018-11-11T03:34:20.133Z,99084.00
2018-11-11T03:36:50.353Z,99082.00
2018-11-11T03:39:20.391Z,99093.00
2018-11-11T03:41:50.769Z,99096.00
2018-11-11T03:44:20.804Z,99091.00
2018-11-11T03:46:50.766Z,99107.00
2018-11-11T03:49:20.448Z,99094.00
2018-11-11T03:51:50.235Z,99069.00
2018-11-11T03:54:20.608Z,99101.00
2018-11-11T03:56:51.179Z,99111.00
2018-11-11T03:59:20.914Z,99111.00
2018-11-11T04:01:50.583Z,99115.00
2018-11-11T04:04:20.289Z,99123.00
2018-11-11T04:06:50.141Z,99120.00
2018-11-11T04:09:26.375Z,99124.00
2018-11-11T04:11:56.185Z,99121.00
2018-11-11T04:14:25.980Z,99124.00
2018-11-11T04:16:56.019Z,99128.00
2018-11-11T04:19:26.105Z,99131.00
2018-11-11T04:21:56.040Z,99132.00
2018-11-11T04:24:25.605Z,99136.00
2018-11-11T04:26:55.538Z,99131.00
2018-11-11T04:29:26.174Z,99137.00
2018-11-11T04:31:56.095Z,99140.00
2018-11-11T04:34:26.100Z,99142.00
2018-11-11T04:36:55.873Z,99146.00
2018-11-11T04:39:26.553Z,99151.00
2018-11-11T04:41:56.894Z,99156.00
2018-11-11T04:44:27.147Z,99155.00
2018-11-11T04:46:56.993Z,99148.00
2018-11-11T04:49:28.031Z,99147.00
2018-11-11T04:51:58.195Z,99142.00
2018-11-11T04:54:28.139Z,99144.00
2018-11-11T04:56:58.148Z,99144.00
2018-11-11T04:59:27.720Z,99144.00
2018-11-11T05:01:57.780Z,99144.00
2018-11-11T05:04:27.604Z,99148.00
2018-11-11T05:06:57.379Z,99143.00
2018-11-11T05:09:28.226Z,99139.00
2018-11-11T05:11:58.008Z,99127.00
2018-11-11T05:14:28.237Z,99143.00
2018-11-11T05:16:58.623Z,99131.00
2018-11-11T05:19:29.048Z,99131.00
2018-11-11T05:21:59.122Z,99139.00
2018-11-11T05:24:28.693Z,99139.00
2018-11-11T05:26:58.827Z,99141.00
2018-11-11T05:29:28.640Z,99135.00
2018-11-11T05:31:58.259Z,99143.00
2018-11-11T05:34:27.975Z,99142.00
2018-11-11T05:36:57.787Z,99143.00
2018-11-11T05:39:29.141Z,99147.00
2018-11-11T05:41:59.205Z,99158.00
2018-11-11T05:44:29.040Z,99152.00
2018-11-11T05:46:59.670Z,99156.00
2018-11-11T05:49:29.730Z,99153.00
2018-11-11T05:51:59.593Z,99151.00
2018-11-11T05:54:30.231Z,99149.00
2018-11-11T05:56:59.980Z,99149.00
2018-11-11T05:59:29.756Z,99147.00
2018-11-11T06:01:59.657Z,99144.00
2018-11-11T06:04:29.211Z,99101.00
2018-11-11T06:06:58.947Z,99128.00
2018-11-11T06:09:28.429Z,99133.00
2018-11-11T06:11:58.479Z,99140.00
2018-11-11T06:14:28.998Z,99132.00
2018-11-11T06:16:58.741Z,99130.00
2018-11-11T06:19:28.708Z,99129.00
2018-11-11T06:21:58.801Z,99134.00
2018-11-11T06:24:28.500Z,99132.00
2018-11-11T06:26:58.069Z,99148.00
2018-11-11T06:29:27.615Z,99132.00
2018-11-11T06:31:57.363Z,99140.00
2018-11-11T06:34:27.805Z,99148.00
2018-11-11T06:36:57.706Z,99142.00
2018-11-11T06:39:30.717Z,99140.00
2018-11-11T06:42:00.500Z,99146.00
2018-11-11T06:44:30.131Z,99138.00
2018-11-11T06:47:00.097Z,99131.00
2018-11-11T06:49:29.946Z,99127.00
2018-11-11T06:51:59.707Z,99144.00
2018-11-11T06:54:29.384Z,99129.00
2018-11-11T06:56:59.347Z,99123.00
2018-11-11T06:59:29.158Z,99116.00
2018-11-11T07:01:59.110Z,99110.00
2018-11-11T07:04:28.679Z,99101.00
2018-11-11T07:06:58.813Z,99107.00
2018-11-11T07:09:28.446Z,99109.00
2018-11-11T07:11:57.988Z,99106.00
2018-11-11T07:14:28.028Z,99102.00
2018-11-11T07:16:58.717Z,99100.00
2018-11-11T07:19:28.634Z,99120.00
2018-11-11T07:21:59.022Z,99128.00
2018-11-11T07:24:28.986Z,99120.00
2018-11-11T07:26:58.803Z,99124.00
2018-11-11T07:29:28.843Z,99125.00
2018-11-11T07:31:58.487Z,99125.00
2018-11-11T07:34:28.135Z,99147.00
2018-11-11T07:36:57.762Z,99162.00
2018-11-11T07:39:28.108Z,99165.00
2018-11-11T07:41:57.569Z,99154.00
2018-11-11T07:44:27.456Z,99153.00
2018-11-11T07:46:57.054Z,99160.00
2018-11-11T07:49:26.565Z,99152.00
2018-11-11T07:51:57.123Z,99149.00
2018-11-11T07:54:27.205Z,99149.00
2018-11-11T07:56:57.135Z,99146.00
2018-11-11T07:59:27.390Z,99134.00
2018-11-11T08:01:57.221Z,99129.00
2018-11-11T08:04:27.078Z,99134.00
2018-11-11T08:06:57.186Z,99133.00
2018-11-11T08:09:27.026Z,99123.00
2018-11-11T08:11:59.439Z,99123.00
2018-11-11T08:14:30.292Z,99128.00
2018-11-11T08:17:00.336Z,99118.00
2018-11-11T08:19:30.747Z,99121.00
2018-11-11T08:22:00.772Z,99111.00
2018-11-11T08:24:30.784Z,99115.00
2018-11-11T08:27:00.546Z,99124.00
2018-11-11T08:29:31.028Z,99153.00
2018-11-11T08:32:01.438Z,99155.00
2018-11-11T08:34:31.324Z,99158.00
2018-11-11T08:37:02.200Z,99163.00
2018-11-11T08:39:32.047Z,99157.00
2018-11-11T08:42:03.072Z,99177.00
2018-11-11T08:44:33.564Z,99179.00
2018-11-11T08:47:03.809Z,99172.00
2018-11-11T08:49:33.709Z,99178.00
2018-11-11T08:52:03.549Z,99170.00
2018-11-11T08:54:33.551Z,99164.00
2018-11-11T08:57:03.403Z,99175.00
2018-11-11T08:59:33.442Z,99185.00
2018-11-11T09:02:03.342Z,99175.00
2018-11-11T09:04:33.705Z,99155.00
2018-11-11T09:07:03.317Z,99147.00
2018-11-11T09:09:33.138Z,99159.00
2018-11-11T09:12:03.122Z,99171.00
2018-11-11T09:14:33.200Z,99174.00
2018-11-11T09:17:03.313Z,99175.00
2018-11-11T09:19:34.308Z,99179.00
2018-11-11T09:22:04.108Z,99195.00
2018-11-11T09:24:35.670Z,99202.00
2018-11-11T09:27:06.803Z,99213.00
2018-11-11T09:29:37.712Z,99228.00
2018-11-11T09:32:07.357Z,99251.00
2018-11-11T09:34:38.353Z,99246.00
2018-11-11T09:37:08.420Z,99246.00
2018-11-11T09:39:38.311Z,99238.00
2018-11-11T09:42:08.217Z,99231.00
2018-11-11T09:44:38.113Z,99227.00
2018-11-11T09:47:08.284Z,99234.00
2018-11-11T09:49:38.446Z,99245.00
2018-11-11T09:52:08.094Z,99261.00
2018-11-11T09:54:38.017Z,99263.00
2018-11-11T09:57:08.841Z,99276.00
2018-11-11T09:59:38.726Z,99271.00
2018-11-11T10:02:09.107Z,99279.00
2018-11-11T10:04:42.515Z,99286.00
2018-11-11T10:07:21.084Z,99283.00
2018-11-11T10:09:56.793Z,99281.00
2018-11-11T10:13:34.377Z,99285.00
2018-11-11T10:18:14.283Z,99291.00
2018-11-11T10:21:52.663Z,99294.00
2018-11-11T10:25:26.443Z,99309.00
2018-11-11T10:28:00.349Z,99290.00
2018-11-11T10:30:38.160Z,99300.00
2018-11-11T10:33:27.306Z,99311.00
2018-11-11T10:36:33.801Z,99318.00
2018-11-11T10:39:09.288Z,99328.00
2018-11-11T10:41:44.865Z,99335.00
2018-11-11T10:44:20.583Z,99344.00
2018-11-11T10:46:56.395Z,99340.00
2018-11-11T10:49:31.520Z,99351.00
2018-11-11T10:52:01.623Z,99356.00
2018-11-11T10:54:32.243Z,99356.00
2018-11-11T10:57:02.495Z,99343.00
2018-11-11T10:59:32.719Z,99340.00
2018-11-11T11:02:08.298Z,99329.00
2018-11-11T11:04:43.493Z,99316.00
2018-11-11T11:07:14.564Z,99324.00
2018-11-11T11:09:44.401Z,99332.00
2018-11-11T11:12:14.582Z,99322.00
2018-11-11T11:14:46.498Z,99322.00
2018-11-11T11:17:16.375Z,99320.00
2018-11-11T11:19:46.033Z,99324.00
2018-11-11T11:22:16.268Z,99337.00
2018-11-11T11:24:46.237Z,99328.00
2018-11-11T11:27:16.483Z,99334.00
2018-11-11T11:29:47.634Z,99338.00
2018-11-11T11:32:17.386Z,99331.00
2018-11-11T11:34:48.245Z,99339.00
2018-11-11T11:37:19.006Z,99342.00
2018-11-11T11:39:51.266Z,99342.00
2018-11-11T11:42:22.773Z,99340.00
2018-11-11T11:44:53.494Z,99341.00
2018-11-11T11:47:23.054Z,99344.00
2018-11-11T11:49:53.394Z,99338.00
2018-11-11T11:52:23.226Z,99326.00
2018-11-11T11:54:53.313Z,99338.00
2018-11-11T11:57:23.037Z,99343.00
2018-11-11T11:59:53.363Z,99338.00
2018-11-11T12:02:23.107Z,99328.00
2018-11-11T12:04:53.063Z,99327.00
2018-11-11T12:07:23.852Z,99326.00
2018-11-11T12:09:54.297Z,99321.00
2018-11-11T12:12:23.926Z,99316.00
2018-11-11T12:14:54.812Z,99315.00
2018-11-11T12:17:24.627Z,99318.00
2018-11-11T12:19:55.026Z,99319.00
2018-11-11T12:22:24.689Z,99320.00
2018-11-11T12:24:55.133Z,99319.00
2018-11-11T12:27:26.798Z,99299.00
2018-11-11T12:29:57.926Z,99297.00
2018-11-11T12:32:28.744Z,99298.00
2018-11-11T12:34:59.570Z,99309.00
2018-11-11T12:37:30.381Z,99296.00
2018-11-11T12:40:00.745Z,99294.00
2018-11-11T12:42:31.793Z,99295.00
2018-11-11T12:45:02.043Z,99306.00
2018-11-11T12:47:32.653Z,99297.00
2018-11-11T12:50:02.541Z,99298.00
2018-11-11T12:52:33.236Z,99310.00
2018-11-11T12:55:03.828Z,99308.00
2018-11-11T12:57:36.902Z,99327.00
2018-11-11T13:00:10.088Z,99325.00
2018-11-11T13:02:39.969Z,99328.00
2018-11-11T13:05:10.887Z,99326.00
2018-11-11T13:07:41.093Z,99327.00
2018-11-11T13:10:13.781Z,99344.00
2018-11-11T13:12:44.705Z,99341.00
2018-11-11T13:15:15.135Z,99342.00
2018-11-11T13:17:46.535Z,99338.00
2018-11-11T13:20:18.408Z,99341.00
2018-11-11T13:22:49.683Z,99344.00
2018-11-11T13:25:20.537Z,99333.00
2018-11-11T13:27:50.336Z,99351.00
2018-11-11T13:30:21.981Z,99348.00
2018-11-11T13:32:52.885Z,99343.00
2018-11-11T13:35:22.694Z,99338.00
2018-11-11T13:37:53.829Z,99343.00
2018-11-11T13:40:23.574Z,99351.00
2018-11-11T13:42:54.090Z,99354.00
2018-11-11T13:45:24.543Z,99351.00
2018-11-11T13:47:55.237Z,99345.00
2018-11-11T13:50:26.190Z,99350.00
2018-11-11T13:52:56.876Z,99358.00
2018-11-11T13:55:27.260Z,99344.00
2018-11-11T13:57:57.902Z,99348.00
2018-11-11T14:00:29.466Z,99348.00
2018-11-11T14:03:00.201Z,99349.00
2018-11-11T14:05:32.794Z,99356.00
2018-11-11T14:08:03.642Z,99366.00
2018-11-11T14:10:33.550Z,99367.00
2018-11-11T14:13:03.724Z,99375.00
2018-11-11T14:15:33.933Z,99380.00
2018-11-11T14:18:04.365Z,99378.00
2018-11-11T14:20:34.809Z,99380.00
2018-11-11T14:23:05.633Z,99377.00
2018-11-11T14:25:35.627Z,99379.00
2018-11-11T14:28:07.205Z,99374.00
2018-11-11T14:30:37.680Z,99370.00
2018-11-11T14:33:07.739Z,99368.00
2018-11-11T14:35:37.710Z,99368.00
2018-11-11T14:38:07.829Z,99363.00
2018-11-11T14:40:38.737Z,99370.00
2018-11-11T14:43:09.542Z,99370.00
2018-11-11T14:45:39.829Z,99371.00
2018-11-11T14:48:10.961Z,99373.00
2018-11-11T14:50:42.318Z,99373.00
2018-11-11T14:53:13.975Z,99383.00
2018-11-11T14:55:45.071Z,99397.00
2018-11-11T14:58:16.080Z,99394.00
2018-11-11T15:00:46.261Z,99403.00
2018-11-11T15:03:19.925Z,99402.00
2018-11-11T15:05:50.479Z,99405.00
2018-11-11T15:08:20.749Z,99413.00
2018-11-11T15:10:51.182Z,99407.00
2018-11-11T15:13:22.350Z,99412.00
2018-11-11T15:15:52.271Z,99415.00
2018-11-11T15:18:22.252Z,99414.00
2018-11-11T15:20:53.192Z,99422.00
2018-11-11T15:23:23.186Z,99426.00
2018-11-11T15:25:53.933Z,99430.00
2018-11-11T15:28:23.720Z,99435.00
2018-11-11T15:30:53.907Z,99436.00
2018-11-11T15:33:24.757Z,99442.00
2018-11-11T15:35:54.684Z,99438.00
2018-11-11T15:38:25.709Z,99446.00
2018-11-11T15:40:55.510Z,99457.00
2018-11-11T15:43:25.463Z,99459.00
2018-11-11T15:45:55.443Z,99455.00
2018-11-11T15:48:27.181Z,99462.00
2018-11-11T15:50:58.924Z,99466.00
2018-11-11T15:53:30.373Z,99463.00
2018-11-11T15:56:00.921Z,99459.00
2018-11-11T15:58:31.199Z,99465.00
2018-11-11T16:01:01.928Z,99462.00
2018-11-11T16:03:34.149Z,99468.00
2018-11-11T16:06:05.053Z,99473.00
2018-11-11T16:08:35.022Z,99468.00
2018-11-11T16:11:05.481Z,99471.00
2018-11-11T16:13:35.766Z,99480.00
2018-11-11T16:16:07.572Z,99468.00
2018-11-11T16:18:37.907Z,99472.00
2018-11-11T16:21:09.112Z,99470.00
2018-11-11T16:23:39.182Z,99471.00
2018-11-11T16:26:09.312Z,99461.00
2018-11-11T16:28:40.747Z,99455.00
2018-11-11T16:31:11.018Z,99456.00
2018-11-11T16:33:41.339Z,99461.00
2018-11-11T16:36:11.528Z,99464.00
2018-11-11T16:38:41.673Z,99480.00
2018-11-11T16:41:12.163Z,99486.00
2018-11-11T16:43:43.105Z,99489.00
2018-11-11T16:46:15.095Z,99485.00
2018-11-11T16:48:46.160Z,99493.00
2018-11-11T16:51:16.222Z,99488.00
2018-11-11T16:53:48.142Z,99500.00
2018-11-11T16:56:18.798Z,99498.00
2018-11-11T16:58:49.002Z,99499.00
2018-11-11T17:01:19.975Z,99495.00
2018-11-11T17:03:50.468Z,99485.00
2018-11-11T17:06:21.035Z,99481.00
2018-11-11T17:08:51.316Z,99476.00
2018-11-11T17:11:22.723Z,99471.00
2018-11-11T17:13:53.058Z,99479.00
2018-11-11T17:16:23.239Z,99478.00
2018-11-11T17:18:53.456Z,99475.00
2018-11-11T17:21:23.483Z,99485.00
2018-11-11T17:23:53.425Z,99484.00
2018-11-11T17:26:23.813Z,99476.00
2018-11-11T17:28:53.960Z,99480.00
2018-11-11T17:31:24.946Z,99477.00
2018-11-11T17:33:55.748Z,99486.00
2018-11-11T17:36:25.868Z,99499.00
2018-11-11T17:38:57.092Z,99499.00
2018-11-11T17:41:27.665Z,99504.00
2018-11-11T17:43:58.120Z,99516.00
2018-11-11T17:46:28.904Z,99515.00
2018-11-11T17:49:03.417Z,99525.00
2018-11-11T17:51:35.392Z,99529.00
2018-11-11T17:54:06.104Z,99528.00
2018-11-11T17:56:36.824Z,99527.00
2018-11-11T17:59:08.125Z,99525.00
2018-11-11T18:01:38.871Z,99522.00
2018-11-11T18:04:08.614Z,99517.00
2018-11-11T18:06:38.259Z,99514.00
2018-11-11T18:09:10.302Z,99530.00
2018-11-11T18:11:40.678Z,99533.00
2018-11-11T18:14:10.747Z,99536.00
2018-11-11T18:16:40.446Z,99545.00
2018-11-11T18:19:10.628Z,99551.00
2018-11-11T18:21:40.335Z,99545.00
2018-11-11T18:24:10.301Z,99560.00
2018-11-11T18:26:40.049Z,99550.00
2018-11-11T18:29:10.563Z,99545.00
2018-11-11T18:31:40.263Z,99546.00
2018-11-11T18:34:10.151Z,99541.00
2018-11-11T18:36:39.721Z,99544.00
2018-11-11T18:39:11.417Z,99537.00
2018-11-11T18:41:41.365Z,99535.00
2018-11-11T18:44:11.174Z,99546.00
2018-11-11T18:46:40.772Z,99539.00
2018-11-11T18:49:11.017Z,99543.00
2018-11-11T18:51:41.399Z,99532.00
2018-11-11T18:54:11.848Z,99538.00
2018-11-11T18:56:41.612Z,99529.00
2018-11-11T18:59:11.525Z,99541.00
2018-11-11T19:01:41.621Z,99544.00
2018-11-11T19:04:11.709Z,99537.00
2018-11-11T19:06:42.809Z,99551.00
2018-11-11T19:09:14.112Z,99541.00
2018-11-11T19:11:43.908Z,99542.00
2018-11-11T19:14:13.533Z,99542.00
2018-11-11T19:16:44.666Z,99552.00
2018-11-11T19:19:14.538Z,99537.00
2018-11-11T19:21:44.619Z,99543.00
2018-11-11T19:24:14.320Z,99549.00
2018-11-11T19:26:44.465Z,99538.00
2018-11-11T19:29:14.316Z,99523.00
2018-11-11T19:31:44.065Z,99535.00
2018-11-11T19:34:13.778Z,99543.00
2018-11-11T19:36:43.565Z,99542.00
2018-11-11T19:39:14.143Z,99555.00
2018-11-11T19:41:44.010Z,99567.00
2018-11-11T19:44:13.704Z,99544.00
2018-11-11T19:46:44.545Z,99552.00
2018-11-11T19:49:14.398Z,99545.00
2018-11-11T19:51:44.908Z,99555.00
2018-11-11T19:54:14.639Z,99557.00
2018-11-11T19:56:44.410Z,99564.00
2018-11-11T19:59:14.733Z,99549.00
2018-11-11T20:01:44.645Z,99551.00
2018-11-11T20:04:14.389Z,99553.00
2018-11-11T20:06:44.099Z,99569.00
2018-11-11T20:09:14.590Z,99574.00
2018-11-11T20:11:44.676Z,99572.00
2018-11-11T20:14:14.319Z,99569.00
2018-11-11T20:16:45.103Z,99575.00
2018-11-11T20:19:14.844Z,99583.00
2018-11-11T20:21:44.470Z,99576.00
2018-11-11T20:24:14.162Z,99575.00
2018-11-11T20:26:44.051Z,99587.00
2018-11-11T20:29:13.621Z,99579.00
2018-11-11T20:31:44.525Z,99585.00
2018-11-11T20:34:14.924Z,99580.00
2018-11-11T20:36:45.826Z,99577.00
2018-11-11T20:39:15.529Z,99597.00
2018-11-11T20:41:46.520Z,99564.00
2018-11-11T20:44:16.525Z,99588.00
2018-11-11T20:46:46.102Z,99581.00
2018-11-11T20:49:15.749Z,99588.00
2018-11-11T20:51:46.299Z,99590.00
2018-11-11T20:54:16.942Z,99587.00
2018-11-11T20:56:46.762Z,99589.00
2018-11-11T20:59:16.378Z,99586.00
2018-11-11T21:01:45.924Z,99594.00
2018-11-11T21:04:19.020Z,99594.00
2018-11-11T21:06:49.940Z,99588.00
2018-11-11T21:09:20.338Z,99577.00
2018-11-11T21:11:50.559Z,99578.00
2018-11-11T21:14:21.200Z,99575.00
2018-11-11T21:16:52.218Z,99576.00
2018-11-11T21:19:22.118Z,99581.00
2018-11-11T21:21:52.896Z,99581.00
2018-11-11T21:24:23.677Z,99570.00
2018-11-11T21:26:53.295Z,99565.00
2018-11-11T21:29:26.041Z,99556.00
2018-11-11T21:31:56.662Z,99538.00
2018-11-11T21:34:26.420Z,99546.00
2018-11-11T21:36:56.327Z,99536.00
2018-11-11T21:39:26.000Z,99527.00
2018-11-11T21:41:55.669Z,99535.00
2018-11-11T21:44:25.979Z,99534.00
2018-11-11T21:46:58.555Z,99536.00
2018-11-11T21:49:29.050Z,99551.00
2018-11-11T21:51:59.692Z,99553.00
2018-11-11T21:54:30.123Z,99564.00
2018-11-11T21:57:02.737Z,99569.00
2018-11-11T21:59:34.736Z,99569.00
2018-11-11T22:02:04.580Z,99584.00
2018-11-11T22:04:34.360Z,99586.00
2018-11-11T22:07:04.058Z,99584.00
2018-11-11T22:09:33.818Z,99591.00
2018-11-11T22:12:03.773Z,99600.00
2018-11-11T22:14:33.537Z,99610.00
2018-11-11T22:17:03.154Z,99604.00
2018-11-11T22:19:32.931Z,99599.00
2018-11-11T22:22:02.752Z,99596.00
2018-11-11T22:24:32.410Z,99603.00
2018-11-11T22:27:03.009Z,99592.00
2018-11-11T22:29:32.811Z,99601.00
2018-11-11T22:32:02.579Z,99600.00
2018-11-11T22:34:32.356Z,99606.00
2018-11-11T22:37:02.220Z,99620.00
2018-11-11T22:39:31.930Z,99633.00
2018-11-11T22:42:03.213Z,99638.00
2018-11-11T22:44:32.725Z,99640.00
2018-11-11T22:47:02.688Z,99642.00
2018-11-11T22:49:32.761Z,99643.00
2018-11-11T22:54:26.095Z,99653.00
2018-11-11T22:56:56.086Z,99657.00
2018-11-11T22:59:25.827Z,99649.00
2018-11-11T23:01:55.642Z,99650.00
2018-11-11T23:04:25.937Z,99660.00
2018-11-11T23:06:55.786Z,99663.00
2018-11-11T23:09:25.310Z,99662.00
2018-11-11T23:11:55.110Z,99664.00
2018-11-11T23:14:24.821Z,99671.00
2018-11-11T23:16:54.853Z,99680.00
2018-11-11T23:19:24.573Z,99674.00
2018-11-11T23:21:54.472Z,99676.00
2018-11-11T23:24:24.768Z,99672.00
2018-11-11T23:26:54.604Z,99677.00
2018-11-11T23:29:24.509Z,99677.00
2018-11-11T23:31:54.373Z,99676.00
2018-11-11T23:34:24.106Z,99670.00
2018-11-11T23:36:54.197Z,99674.00
2018-11-11T23:39:24.054Z,99676.00
2018-11-11T23:41:54.201Z,99672.00
2018-11-11T23:44:25.211Z,99658.00
2018-11-11T23:46:54.959Z,99650.00
2018-11-11T23:49:24.683Z,99650.00
2018-11-11T23:51:54.959Z,99659.00
2018-11-11T23:54:24.562Z,99682.00
2018-11-11T23:56:54.757Z,99677.00
2018-11-11T23:59:24.304Z,99671.00
